createdAt,value
2019-04-27T00:01:40.620Z,9.63
2019-04-27T00:04:19.314Z,10.30
2019-04-27T00:06:50.577Z,9.85
2019-04-27T00:09:27.253Z,10.15
2019-04-27T00:11:58.332Z,9.75
2019-04-27T00:14:27.746Z,9.60
2019-04-27T00:17:21.154Z,10.23
2019-04-27T00:20:05.764Z,9.78
2019-04-27T00:22:39.682Z,10.28
2019-04-27T00:25:09.637Z,10.98
2019-04-27T00:27:39.043Z,10.82
2019-04-27T00:30:09.242Z,10.23
2019-04-27T00:32:39.832Z,11.20
2019-04-27T00:35:11.218Z,11.45
2019-04-27T00:37:42.709Z,11.45
2019-04-27T00:40:33.438Z,10.43
2019-04-27T00:43:03.086Z,10.35
2019-04-27T00:45:33.554Z,11.12
2019-04-27T00:48:03.642Z,11.40
2019-04-27T00:50:33.820Z,11.38
2019-04-27T00:53:03.579Z,10.65
2019-04-27T00:55:34.711Z,10.30
2019-04-27T00:58:05.850Z,11.63
2019-04-27T01:00:36.981Z,11.55
2019-04-27T01:03:14.005Z,11.22
2019-04-27T01:05:43.479Z,11.97
2019-04-27T01:08:13.891Z,11.28
2019-04-27T01:10:43.588Z,12.23
2019-04-27T01:13:13.437Z,12.45
2019-04-27T01:15:43.070Z,11.68
2019-04-27T01:18:15.342Z,12.25
2019-04-27T01:20:43.780Z,12.23
2019-04-27T01:23:13.363Z,13.05
2019-04-27T01:25:47.130Z,13.98
2019-04-27T01:28:21.223Z,13.58
2019-04-27T01:31:09.247Z,12.58
2019-04-27T01:33:39.016Z,12.75
2019-04-27T01:36:10.616Z,13.20
2019-04-27T01:38:41.066Z,12.68
2019-04-27T01:41:10.673Z,13.25
2019-04-27T01:43:40.118Z,12.95
2019-04-27T01:46:09.605Z,13.22
2019-04-27T01:48:39.021Z,13.32
2019-04-27T01:51:09.225Z,13.65
2019-04-27T01:53:39.148Z,12.95
2019-04-27T01:56:09.246Z,14.25
2019-04-27T01:58:39.335Z,14.75
2019-04-27T02:01:13.064Z,12.98
2019-04-27T02:03:44.083Z,14.80
2019-04-27T02:06:13.572Z,14.50
2019-04-27T02:08:43.019Z,15.13
2019-04-27T02:11:12.441Z,14.68
2019-04-27T02:13:41.818Z,15.43
2019-04-27T02:16:11.712Z,14.93
2019-04-27T02:18:41.233Z,15.80
2019-04-27T02:21:10.718Z,15.13
2019-04-27T02:23:40.150Z,15.58
2019-04-27T02:26:10.040Z,15.70
2019-04-27T02:28:41.063Z,16.00
2019-04-27T02:31:30.195Z,15.72
2019-04-27T02:34:04.264Z,15.20
2019-04-27T02:36:33.612Z,16.00
2019-04-27T02:39:03.020Z,15.95
2019-04-27T02:41:32.360Z,16.52
2019-04-27T02:44:03.442Z,17.02
2019-04-27T02:46:32.927Z,16.67
2019-04-27T02:49:06.446Z,17.02
2019-04-27T02:51:35.163Z,15.83
2019-04-27T02:54:04.680Z,17.07
2019-04-27T02:56:34.036Z,16.57
2019-04-27T02:59:03.609Z,17.37
2019-04-27T03:01:46.228Z,17.67
2019-04-27T03:04:11.435Z,18.12
2019-04-27T03:06:40.913Z,19.80
2019-04-27T03:09:10.601Z,18.73
2019-04-27T03:11:40.015Z,18.45
2019-04-27T03:14:29.423Z,17.52
2019-04-27T03:16:56.280Z,17.48
2019-04-27T03:19:36.313Z,18.10
2019-04-27T03:22:09.674Z,18.85
2019-04-27T03:25:00.007Z,18.55
2019-04-27T03:27:31.504Z,18.10
2019-04-27T03:30:01.299Z,19.48
2019-04-27T03:32:31.791Z,19.75
2019-04-27T03:35:03.109Z,18.98
2019-04-27T03:37:32.716Z,18.55
2019-04-27T03:40:02.235Z,18.37
2019-04-27T03:42:37.153Z,18.48
2019-04-27T03:45:06.764Z,18.77
2019-04-27T03:47:36.372Z,18.35
2019-04-27T03:50:11.138Z,18.73
2019-04-27T03:52:59.944Z,17.55
2019-04-27T03:55:31.287Z,17.15
2019-04-27T03:58:21.706Z,18.27
2019-04-27T04:00:53.029Z,17.90
2019-04-27T04:03:22.516Z,18.75
2019-04-27T04:05:52.265Z,17.37
2019-04-27T04:08:21.682Z,18.32
2019-04-27T04:10:52.967Z,18.27
2019-04-27T04:13:33.049Z,18.25
2019-04-27T04:16:07.436Z,17.60
2019-04-27T04:18:53.204Z,13.75
2019-04-27T04:21:22.652Z,16.70
2019-04-27T04:23:52.141Z,17.70
2019-04-27T04:26:21.655Z,18.00
2019-04-27T04:28:51.139Z,17.17
2019-04-27T04:31:21.107Z,18.40
2019-04-27T04:33:50.940Z,18.92
2019-04-27T04:36:20.449Z,22.82
2019-04-27T04:38:50.520Z,20.72
2019-04-27T04:41:30.840Z,18.57
2019-04-27T04:44:20.287Z,16.90
2019-04-27T04:46:50.762Z,16.42
2019-04-27T04:49:20.182Z,16.02
2019-04-27T04:51:50.362Z,17.10
2019-04-27T04:54:24.231Z,17.05
2019-04-27T04:56:51.046Z,16.97
2019-04-27T04:59:20.460Z,17.00
2019-04-27T05:01:50.160Z,16.45
2019-04-27T05:04:19.542Z,16.15
2019-04-27T05:06:50.705Z,15.10
2019-04-27T05:09:20.039Z,15.65
2019-04-27T05:11:49.414Z,14.40
2019-04-27T05:14:19.985Z,14.90
2019-04-27T05:16:49.923Z,16.20
2019-04-27T05:19:19.334Z,15.50
2019-04-27T05:21:49.217Z,14.78
2019-04-27T05:24:19.278Z,14.65
2019-04-27T05:26:48.868Z,15.32
2019-04-27T05:29:19.155Z,16.25
2019-04-27T05:31:49.077Z,14.28
2019-04-27T05:34:19.735Z,15.03
2019-04-27T05:36:52.451Z,14.07
2019-04-27T05:39:24.901Z,14.13
2019-04-27T05:41:51.656Z,14.07
2019-04-27T05:44:31.525Z,14.73
2019-04-27T05:47:10.011Z,13.32
2019-04-27T05:49:44.510Z,12.70
2019-04-27T05:52:29.386Z,13.83
2019-04-27T05:54:59.682Z,13.80
2019-04-27T05:57:31.464Z,13.53
2019-04-27T06:00:09.266Z,13.83
2019-04-27T06:02:39.856Z,13.10
2019-04-27T06:05:09.658Z,13.08
2019-04-27T06:07:39.650Z,13.58
2019-04-27T06:10:09.730Z,12.75
2019-04-27T06:12:39.614Z,12.45
2019-04-27T06:15:09.837Z,13.43
2019-04-27T06:17:39.310Z,14.10
2019-04-27T06:20:09.413Z,12.05
2019-04-27T06:22:39.100Z,12.93
2019-04-27T06:25:11.901Z,11.05
2019-04-27T06:27:39.859Z,12.78
2019-04-27T06:30:12.106Z,12.60
2019-04-27T06:32:41.208Z,12.90
2019-04-27T06:35:12.428Z,12.47
2019-04-27T06:37:41.883Z,12.03
2019-04-27T06:40:11.454Z,11.95
2019-04-27T06:42:40.904Z,11.22
2019-04-27T06:45:10.477Z,12.13
2019-04-27T06:47:41.447Z,11.83
2019-04-27T06:50:11.480Z,12.68
2019-04-27T06:52:40.861Z,11.97
2019-04-27T06:55:10.355Z,12.53
2019-04-27T06:57:41.195Z,13.95
2019-04-27T07:00:11.128Z,12.50
2019-04-27T07:02:40.481Z,12.05
2019-04-27T07:05:10.304Z,12.10
2019-04-27T07:07:39.808Z,13.10
2019-04-27T07:10:10.927Z,12.25
2019-04-27T07:12:41.109Z,13.22
2019-04-27T07:15:10.985Z,12.85
2019-04-27T07:17:40.739Z,12.50
2019-04-27T07:20:11.640Z,12.13
2019-04-27T07:22:41.006Z,13.10
2019-04-27T07:25:10.918Z,12.78
2019-04-27T07:27:40.269Z,12.93
2019-04-27T07:30:11.858Z,13.45
2019-04-27T07:32:41.290Z,13.22
2019-04-27T07:35:10.921Z,12.98
2019-04-27T07:37:40.415Z,12.73
2019-04-27T07:40:10.160Z,14.23
2019-04-27T07:42:41.435Z,13.90
2019-04-27T07:45:19.562Z,12.80
2019-04-27T07:47:50.550Z,13.10
2019-04-27T07:50:19.999Z,13.20
2019-04-27T07:52:49.356Z,12.90
2019-04-27T07:55:18.810Z,13.00
2019-04-27T07:57:49.451Z,13.18
2019-04-27T08:00:20.672Z,13.03
2019-04-27T08:02:50.106Z,13.60
2019-04-27T08:05:19.557Z,13.32
2019-04-27T08:07:49.230Z,13.60
2019-04-27T08:10:19.356Z,12.55
2019-04-27T08:12:49.857Z,11.48
2019-04-27T08:15:19.512Z,12.53
2019-04-27T08:17:49.349Z,12.13
2019-04-27T08:20:21.102Z,12.45
2019-04-27T08:22:50.053Z,11.43
2019-04-27T08:25:19.468Z,11.85
2019-04-27T08:28:00.292Z,12.07
2019-04-27T08:30:34.271Z,12.78
2019-04-27T08:33:05.403Z,11.78
2019-04-27T08:35:35.377Z,11.53
2019-04-27T08:38:05.192Z,12.33
2019-04-27T08:40:34.750Z,11.90
2019-04-27T08:43:04.337Z,12.63
2019-04-27T08:45:33.790Z,11.95
2019-04-27T08:48:03.510Z,11.68
2019-04-27T08:50:33.084Z,11.08
2019-04-27T08:53:02.447Z,10.95
2019-04-27T08:55:32.106Z,10.60
2019-04-27T08:58:01.465Z,10.75
2019-04-27T09:00:31.058Z,9.98
2019-04-27T09:03:00.892Z,10.23
2019-04-27T09:05:30.287Z,10.00
2019-04-27T09:08:18.960Z,9.25
2019-04-27T09:10:50.751Z,9.85
2019-04-27T09:13:33.906Z,10.10
2019-04-27T09:16:11.148Z,9.38
2019-04-27T09:18:41.183Z,9.70
2019-04-27T09:21:10.765Z,10.45
2019-04-27T09:23:40.513Z,9.95
2019-04-27T09:26:11.203Z,9.38
2019-04-27T09:28:40.664Z,9.43
2019-04-27T09:31:11.754Z,8.93
2019-04-27T09:33:41.920Z,8.93
2019-04-27T09:36:12.433Z,9.55
2019-04-27T09:38:41.803Z,9.18
2019-04-27T09:41:11.187Z,9.08
2019-04-27T09:43:41.867Z,8.80
2019-04-27T09:46:11.745Z,8.85
2019-04-27T09:48:41.177Z,8.60
2019-04-27T09:51:10.772Z,8.45
2019-04-27T09:53:40.544Z,8.40
2019-04-27T09:56:10.592Z,8.80
2019-04-27T09:58:40.489Z,8.18
2019-04-27T10:01:10.401Z,7.70
2019-04-27T10:03:39.813Z,7.87
2019-04-27T10:06:09.594Z,8.43
2019-04-27T10:08:39.163Z,7.60
2019-04-27T10:11:08.735Z,7.53
2019-04-27T10:13:38.114Z,8.25
2019-04-27T10:16:07.868Z,6.53
2019-04-27T10:18:37.284Z,6.65
2019-04-27T10:21:06.802Z,6.50
2019-04-27T10:23:38.303Z,7.50
2019-04-27T10:26:08.162Z,8.20
2019-04-27T10:28:38.049Z,9.65
2019-04-27T10:31:08.274Z,8.85
2019-04-27T10:33:37.867Z,8.10
2019-04-27T10:36:07.485Z,8.25
2019-04-27T10:38:36.887Z,7.97
2019-04-27T10:41:07.696Z,7.80
2019-04-27T10:43:37.404Z,7.97
2019-04-27T10:46:07.409Z,7.53
2019-04-27T10:48:37.053Z,7.65
2019-04-27T10:51:07.374Z,6.08
2019-04-27T10:53:38.933Z,5.08
2019-04-27T10:56:08.120Z,6.08
2019-04-27T10:58:38.027Z,5.33
2019-04-27T11:01:09.250Z,6.20
2019-04-27T11:03:57.491Z,5.97
2019-04-27T11:06:31.559Z,5.87
2019-04-27T11:09:01.077Z,5.90
2019-04-27T11:11:56.699Z,5.47
2019-04-27T11:14:26.521Z,5.25
2019-04-27T11:16:56.141Z,5.62
2019-04-27T11:19:26.752Z,5.97
2019-04-27T11:21:56.435Z,6.10
2019-04-27T11:24:26.086Z,6.05
2019-04-27T11:26:56.693Z,7.00
2019-04-27T11:29:27.639Z,6.53
2019-04-27T11:31:57.333Z,6.78
2019-04-27T11:34:45.939Z,7.60
2019-04-27T11:37:17.597Z,8.43
2019-04-27T11:39:47.187Z,8.40
2019-04-27T11:42:16.926Z,8.08
2019-04-27T11:44:47.076Z,7.95
2019-04-27T11:47:16.789Z,7.05
2019-04-27T11:49:46.309Z,7.15
2019-04-27T11:52:15.814Z,6.22
2019-04-27T11:54:45.748Z,6.97
2019-04-27T11:57:15.694Z,6.65
2019-04-27T11:59:45.082Z,6.53
2019-04-27T12:02:15.611Z,5.53
2019-04-27T12:04:46.652Z,5.80
2019-04-27T12:07:16.239Z,5.97
2019-04-27T12:09:46.247Z,6.17
2019-04-27T12:12:21.649Z,5.70
2019-04-27T12:14:48.053Z,6.17
2019-04-27T12:17:17.675Z,6.17
2019-04-27T12:19:47.050Z,5.72
2019-04-27T12:22:16.534Z,5.90
2019-04-27T12:24:45.976Z,4.90
2019-04-27T12:27:17.344Z,4.70
2019-04-27T12:30:03.396Z,4.25
2019-04-27T12:32:32.812Z,4.55
2019-04-27T12:35:02.246Z,4.33
2019-04-27T12:37:32.038Z,4.03
2019-04-27T12:40:01.475Z,3.87
2019-04-27T12:42:30.959Z,4.15
2019-04-27T12:45:01.522Z,4.17
2019-04-27T12:47:31.373Z,3.92
2019-04-27T12:50:00.746Z,3.90
2019-04-27T12:52:30.263Z,4.33
2019-04-27T12:55:01.354Z,4.95
2019-04-27T12:57:41.444Z,4.72
2019-04-27T13:00:13.101Z,4.85
2019-04-27T13:02:42.730Z,4.67
2019-04-27T13:05:12.816Z,4.58
2019-04-27T13:07:42.377Z,5.45
2019-04-27T13:10:12.671Z,4.75
2019-04-27T13:12:43.129Z,4.10
2019-04-27T13:15:12.938Z,3.50
2019-04-27T13:17:42.363Z,4.10
2019-04-27T13:20:13.254Z,5.00
2019-04-27T13:22:42.667Z,4.72
2019-04-27T13:25:12.654Z,4.67
2019-04-27T13:27:42.071Z,4.08
2019-04-27T13:30:12.586Z,4.40
2019-04-27T13:32:41.994Z,4.03
2019-04-27T13:35:11.682Z,4.95
2019-04-27T13:37:42.904Z,4.05
2019-04-27T13:40:17.069Z,4.20
2019-04-27T13:42:57.271Z,3.98
2019-04-27T13:45:43.283Z,4.08
2019-04-27T13:48:30.696Z,4.35
2019-04-27T13:51:13.740Z,3.75
2019-04-27T13:53:43.390Z,3.47
2019-04-27T13:56:17.347Z,3.85
2019-04-27T13:58:47.099Z,3.85
2019-04-27T14:01:16.547Z,3.55
2019-04-27T14:03:45.959Z,3.80
2019-04-27T14:06:15.319Z,4.30
2019-04-27T14:08:44.724Z,4.17
2019-04-27T14:11:14.090Z,4.12
2019-04-27T14:13:43.433Z,3.27
2019-04-27T14:16:12.796Z,3.10
2019-04-27T14:18:42.179Z,2.90
2019-04-27T14:21:11.516Z,2.85
2019-04-27T14:23:40.854Z,3.20
2019-04-27T14:26:10.361Z,3.77
2019-04-27T14:28:39.703Z,2.70
2019-04-27T14:31:09.072Z,1.60
2019-04-27T14:33:39.804Z,1.60
2019-04-27T14:36:09.301Z,1.40
2019-04-27T14:38:38.666Z,1.37
2019-04-27T14:41:09.071Z,1.30
2019-04-27T14:43:38.638Z,1.40
2019-04-27T14:46:08.165Z,1.27
2019-04-27T14:48:39.295Z,2.45
2019-04-27T14:51:08.877Z,2.30
2019-04-27T14:53:38.641Z,2.50
2019-04-27T14:56:08.852Z,2.22
2019-04-27T14:58:40.141Z,3.40
2019-04-27T15:01:09.606Z,3.10
2019-04-27T15:03:38.987Z,3.00
2019-04-27T15:06:09.549Z,2.95
2019-04-27T15:08:42.594Z,3.08
2019-04-27T15:11:14.848Z,3.67
2019-04-27T15:13:43.169Z,3.58
2019-04-27T15:16:12.267Z,3.33
2019-04-27T15:18:43.819Z,3.75
2019-04-27T15:21:13.326Z,4.05
2019-04-27T15:23:42.837Z,3.25
2019-04-27T15:26:15.443Z,3.20
2019-04-27T15:28:49.376Z,3.40
2019-04-27T15:31:24.961Z,2.83
2019-04-27T15:33:54.710Z,2.80
2019-04-27T15:36:40.878Z,2.62
2019-04-27T15:39:30.502Z,3.40
2019-04-27T15:42:08.162Z,2.77
2019-04-27T15:44:36.455Z,2.90
2019-04-27T15:47:10.324Z,3.52
2019-04-27T15:49:38.736Z,2.75
2019-04-27T15:52:09.053Z,2.70
2019-04-27T15:54:38.607Z,2.77
2019-04-27T15:57:12.373Z,3.15
2019-04-27T15:59:40.976Z,3.08
2019-04-27T16:02:15.337Z,3.40
2019-04-27T16:04:44.468Z,3.60
2019-04-27T16:07:13.377Z,3.87
2019-04-27T16:09:42.738Z,5.05
2019-04-27T16:12:12.930Z,6.10
2019-04-27T16:14:44.152Z,31.97
2019-04-27T16:17:13.464Z,26.05
2019-04-27T16:19:47.257Z,29.07
2019-04-27T16:22:14.230Z,7.78
2019-04-27T16:24:43.661Z,5.35
2019-04-27T16:27:13.072Z,3.55
2019-04-27T16:29:42.510Z,3.83
2019-04-27T16:32:11.984Z,5.15
2019-04-27T16:34:41.435Z,6.70
2019-04-27T16:37:14.050Z,3.45
2019-04-27T16:39:45.671Z,2.98
2019-04-27T16:42:15.441Z,4.45
2019-04-27T16:44:51.317Z,3.52
2019-04-27T16:47:17.559Z,3.10
2019-04-27T16:49:48.339Z,2.60
2019-04-27T16:52:19.211Z,2.80
2019-04-27T16:54:57.141Z,2.70
2019-04-27T16:57:21.675Z,26.25
2019-04-27T16:59:57.520Z,3.02
2019-04-27T17:02:25.024Z,3.70
2019-04-27T17:04:55.650Z,3.22
2019-04-27T17:07:24.456Z,3.60
2019-04-27T17:09:53.820Z,4.00
2019-04-27T17:12:23.722Z,4.62
2019-04-27T17:15:05.836Z,5.00
2019-04-27T17:17:42.706Z,6.20
2019-04-27T17:20:13.057Z,4.97
2019-04-27T17:22:45.601Z,5.83
2019-04-27T17:25:15.425Z,4.67
2019-04-27T17:27:49.629Z,5.47
2019-04-27T17:30:19.767Z,3.47
2019-04-27T17:32:51.181Z,4.33
2019-04-27T17:35:20.733Z,4.87
2019-04-27T17:37:50.085Z,3.80
2019-04-27T17:40:19.520Z,4.30
2019-04-27T17:42:48.928Z,4.08
2019-04-27T17:45:21.356Z,2.90
2019-04-27T17:47:49.485Z,3.55
2019-04-27T17:50:24.965Z,4.28
2019-04-27T17:52:54.870Z,4.67
2019-04-27T17:55:24.219Z,3.72
2019-04-27T17:57:52.496Z,4.40
2019-04-27T18:00:22.541Z,4.25
2019-04-27T18:02:52.020Z,4.30
2019-04-27T18:05:21.818Z,5.25
2019-04-27T18:07:51.716Z,5.75
2019-04-27T18:10:24.317Z,4.22
2019-04-27T18:12:52.552Z,3.58
2019-04-27T18:15:22.596Z,3.25
2019-04-27T18:17:53.655Z,3.30
2019-04-27T18:20:29.702Z,3.17
2019-04-27T18:23:15.029Z,3.15
2019-04-27T18:25:45.468Z,3.58
2019-04-27T18:28:19.298Z,3.90
2019-04-27T18:30:56.401Z,4.75
2019-04-27T18:33:25.739Z,3.72
2019-04-27T18:35:58.949Z,4.45
2019-04-27T18:38:26.308Z,3.72
2019-04-27T18:40:55.676Z,3.85
2019-04-27T18:43:25.077Z,3.83
2019-04-27T18:45:54.509Z,4.17
2019-04-27T18:48:37.793Z,5.30
2019-04-27T18:51:15.864Z,6.20
2019-04-27T18:53:45.204Z,4.95
2019-04-27T18:56:14.571Z,5.10
2019-04-27T18:58:43.908Z,4.67
2019-04-27T19:01:13.340Z,5.33
2019-04-27T19:03:42.674Z,6.55
2019-04-27T19:06:12.102Z,6.30
2019-04-27T19:08:41.502Z,5.12
2019-04-27T19:11:10.931Z,4.40
2019-04-27T19:13:40.267Z,4.72
2019-04-27T19:16:09.817Z,4.50
2019-04-27T19:18:39.909Z,4.75
2019-04-27T19:21:09.386Z,4.70
2019-04-27T19:23:40.285Z,4.58
2019-04-27T19:26:11.469Z,4.35
2019-04-27T19:28:51.325Z,4.60
2019-04-27T19:31:29.091Z,4.25
2019-04-27T19:33:58.707Z,1.10
2019-04-27T19:36:30.242Z,0.70
2019-04-27T19:38:59.126Z,0.70
2019-04-27T19:41:28.922Z,0.80
2019-04-27T19:43:59.899Z,0.80
2019-04-27T19:46:30.575Z,0.68
2019-04-27T19:49:00.142Z,0.45
2019-04-27T19:51:29.467Z,0.47
2019-04-27T19:53:58.890Z,1.30
2019-04-27T19:56:28.515Z,1.10
2019-04-27T19:58:59.578Z,1.07
2019-04-27T20:01:36.376Z,0.90
2019-04-27T20:04:08.593Z,0.72
2019-04-27T20:06:38.485Z,0.80
2019-04-27T20:09:12.363Z,1.12
2019-04-27T20:11:41.762Z,0.95
2019-04-27T20:14:11.141Z,1.12
2019-04-27T20:16:41.776Z,1.00
2019-04-27T20:19:11.640Z,0.80
2019-04-27T20:21:41.034Z,0.80
2019-04-27T20:24:11.786Z,1.00
2019-04-27T20:26:41.194Z,1.00
2019-04-27T20:29:11.832Z,0.95
2019-04-27T20:31:41.465Z,0.95
2019-04-27T20:34:10.818Z,0.90
2019-04-27T20:36:41.509Z,0.98
2019-04-27T20:39:11.706Z,0.80
2019-04-27T20:41:41.406Z,1.17
2019-04-27T20:44:12.629Z,2.10
2019-04-27T20:46:41.960Z,1.00
2019-04-27T20:49:15.965Z,1.05
2019-04-27T20:51:51.050Z,1.47
2019-04-27T20:54:22.445Z,1.12
2019-04-27T20:56:53.648Z,1.00
2019-04-27T20:59:22.929Z,1.10
2019-04-27T21:01:52.319Z,1.20
2019-04-27T21:04:23.314Z,1.17
2019-04-27T21:06:54.753Z,1.35
2019-04-27T21:09:24.177Z,1.30
2019-04-27T21:11:53.512Z,1.22
2019-04-27T21:14:22.867Z,1.17
2019-04-27T21:16:52.315Z,1.20
2019-04-27T21:19:21.679Z,1.32
2019-04-27T21:21:51.193Z,1.30
2019-04-27T21:24:20.741Z,1.95
2019-04-27T21:26:51.624Z,1.95
2019-04-27T21:29:21.058Z,1.95
2019-04-27T21:31:52.008Z,1.40
2019-04-27T21:34:21.392Z,1.72
2019-04-27T21:36:51.110Z,1.50
2019-04-27T21:39:21.694Z,1.62
2019-04-27T21:41:51.862Z,1.80
2019-04-27T21:44:21.913Z,1.90
2019-04-27T21:46:51.891Z,1.85
2019-04-27T21:49:23.114Z,1.98
2019-04-27T21:52:03.314Z,1.80
2019-04-27T21:54:34.525Z,2.10
2019-04-27T21:57:04.515Z,2.33
2019-04-27T21:59:33.877Z,2.17
2019-04-27T22:02:04.924Z,2.22
2019-04-27T22:04:34.364Z,2.22
2019-04-27T22:07:03.761Z,2.10
2019-04-27T22:09:33.248Z,2.25
2019-04-27T22:12:02.729Z,2.42
2019-04-27T22:14:32.157Z,2.25
2019-04-27T22:17:01.554Z,2.10
2019-04-27T22:19:31.468Z,2.55
2019-04-27T22:22:02.447Z,2.83
2019-04-27T22:24:33.458Z,3.00
2019-04-27T22:27:02.789Z,2.72
2019-04-27T22:29:35.191Z,2.72
2019-04-27T22:32:04.799Z,2.90
2019-04-27T22:34:34.242Z,3.20
2019-04-27T22:37:03.948Z,3.02
2019-04-27T22:39:34.946Z,2.60
2019-04-27T22:42:05.991Z,2.95
2019-04-27T22:44:36.991Z,2.58
2019-04-27T22:47:06.471Z,2.70
2019-04-27T22:49:35.979Z,2.83
2019-04-27T22:52:05.456Z,3.05
2019-04-27T22:54:34.960Z,3.30
2019-04-27T22:57:06.038Z,3.12
2019-04-27T22:59:37.015Z,3.92
2019-04-27T23:02:29.241Z,3.60
2019-04-27T23:05:02.191Z,3.33
2019-04-27T23:07:31.729Z,3.77
2019-04-27T23:10:01.487Z,3.35
2019-04-27T23:12:31.681Z,3.70
2019-04-27T23:15:01.301Z,4.12
2019-04-27T23:17:51.780Z,4.20
2019-04-27T23:20:21.270Z,3.67
2019-04-27T23:22:51.514Z,4.80
2019-04-27T23:25:21.017Z,4.10
2019-04-27T23:27:51.421Z,4.35
2019-04-27T23:30:22.600Z,4.10
2019-04-27T23:32:53.286Z,3.67
2019-04-27T23:35:22.737Z,4.35
2019-04-27T23:37:52.864Z,3.45
2019-04-27T23:40:22.481Z,3.80
2019-04-27T23:42:51.810Z,4.28
2019-04-27T23:45:22.462Z,4.00
2019-04-27T23:47:51.937Z,4.50
2019-04-27T23:50:21.968Z,4.40
2019-04-27T23:52:58.711Z,4.08
2019-04-27T23:55:31.043Z,4.00
2019-04-27T23:58:00.380Z,3.33
